sensor_id;sensor_type;location;lat;lon;timestamp;P1;durP1;ratioP1;P2;durP2;ratioP2
11490;SDS011;5802;52.832;4.758;2022-10-31T00:01:11;1.08;;;0.90;;
11490;SDS011;5802;52.832;4.758;2022-10-31T00:03:46;1.25;;;1.00;;
11490;SDS011;5802;52.832;4.758;2022-10-31T00:06:13;1.08;;;0.98;;
11490;SDS011;5802;52.832;4.758;2022-10-31T00:08:43;1.25;;;1.00;;
11490;SDS011;5802;52.832;4.758;2022-10-31T00:11:09;1.63;;;0.73;;
11490;SDS011;5802;52.832;4.758;2022-10-31T00:13:37;1.40;;;1.00;;
11490;SDS011;5802;52.832;4.758;2022-10-31T00:16:04;2.25;;;1.00;;
11490;SDS011;5802;52.832;4.758;2022-10-31T00:18:38;0.75;;;0.70;;
11490;SDS011;5802;52.832;4.758;2022-10-31T00:21:06;2.40;;;0.80;;
11490;SDS011;5802;52.832;4.758;2022-10-31T00:23:33;2.10;;;1.15;;
11490;SDS011;5802;52.832;4.758;2022-10-31T00:26:00;1.40;;;1.10;;
11490;SDS011;5802;52.832;4.758;2022-10-31T00:28:27;1.20;;;1.00;;
11490;SDS011;5802;52.832;4.758;2022-10-31T00:30:57;1.70;;;1.17;;
11490;SDS011;5802;52.832;4.758;2022-10-31T00:33:24;0.77;;;0.73;;
11490;SDS011;5802;52.832;4.758;2022-10-31T00:35:51;1.27;;;0.93;;
11490;SDS011;5802;52.832;4.758;2022-10-31T00:38:19;1.15;;;0.80;;
11490;SDS011;5802;52.832;4.758;2022-10-31T00:40:46;1.73;;;1.00;;
11490;SDS011;5802;52.832;4.758;2022-10-31T00:43:13;2.20;;;1.20;;
11490;SDS011;5802;52.832;4.758;2022-10-31T00:45:40;0.85;;;0.82;;
11490;SDS011;5802;52.832;4.758;2022-10-31T00:48:08;2.05;;;0.90;;
11490;SDS011;5802;52.832;4.758;2022-10-31T00:50:34;3.10;;;0.90;;
11490;SDS011;5802;52.832;4.758;2022-10-31T00:53:02;1.17;;;0.98;;
11490;SDS011;5802;52.832;4.758;2022-10-31T00:55:30;1.80;;;0.80;;
11490;SDS011;5802;52.832;4.758;2022-10-31T00:57:57;2.92;;;1.00;;
11490;SDS011;5802;52.832;4.758;2022-10-31T01:00:23;1.95;;;0.90;;
11490;SDS011;5802;52.832;4.758;2022-10-31T01:02:50;3.75;;;0.90;;
11490;SDS011;5802;52.832;4.758;2022-10-31T01:05:17;2.00;;;0.88;;
11490;SDS011;5802;52.832;4.758;2022-10-31T01:07:44;4.25;;;0.93;;
11490;SDS011;5802;52.832;4.758;2022-10-31T01:10:11;3.10;;;1.00;;
11490;SDS011;5802;52.832;4.758;2022-10-31T01:12:40;2.78;;;1.17;;
11490;SDS011;5802;52.832;4.758;2022-10-31T01:15:10;2.97;;;1.02;;
11490;SDS011;5802;52.832;4.758;2022-10-31T01:17:37;2.15;;;1.20;;
11490;SDS011;5802;52.832;4.758;2022-10-31T01:20:05;1.38;;;0.88;;
11490;SDS011;5802;52.832;4.758;2022-10-31T01:22:33;1.85;;;0.82;;
11490;SDS011;5802;52.832;4.758;2022-10-31T01:25:00;2.03;;;0.90;;
11490;SDS011;5802;52.832;4.758;2022-10-31T01:27:27;1.98;;;1.00;;
11490;SDS011;5802;52.832;4.758;2022-10-31T01:29:55;1.23;;;0.77;;
11490;SDS011;5802;52.832;4.758;2022-10-31T01:32:21;2.22;;;0.70;;
11490;SDS011;5802;52.832;4.758;2022-10-31T01:34:51;1.55;;;1.10;;
11490;SDS011;5802;52.832;4.758;2022-10-31T01:37:18;1.83;;;0.90;;
11490;SDS011;5802;52.832;4.758;2022-10-31T01:39:44;1.85;;;1.20;;
11490;SDS011;5802;52.832;4.758;2022-10-31T01:42:11;4.55;;;1.15;;
11490;SDS011;5802;52.832;4.758;2022-10-31T01:44:53;2.70;;;0.90;;
11490;SDS011;5802;52.832;4.758;2022-10-31T01:47:26;1.65;;;0.90;;
11490;SDS011;5802;52.832;4.758;2022-10-31T01:50:04;5.15;;;0.95;;
11490;SDS011;5802;52.832;4.758;2022-10-31T01:52:37;2.08;;;0.80;;
11490;SDS011;5802;52.832;4.758;2022-10-31T01:55:07;1.58;;;0.88;;
11490;SDS011;5802;52.832;4.758;2022-10-31T01:57:37;1.30;;;0.73;;
11490;SDS011;5802;52.832;4.758;2022-10-31T02:00:10;2.50;;;1.00;;
11490;SDS011;5802;52.832;4.758;2022-10-31T02:02:38;2.25;;;0.82;;
11490;SDS011;5802;52.832;4.758;2022-10-31T02:05:06;1.50;;;0.85;;
11490;SDS011;5802;52.832;4.758;2022-10-31T02:07:40;3.13;;;1.10;;
11490;SDS011;5802;52.832;4.758;2022-10-31T02:10:11;1.70;;;0.77;;
11490;SDS011;5802;52.832;4.758;2022-10-31T02:12:38;3.03;;;1.20;;
11490;SDS011;5802;52.832;4.758;2022-10-31T02:15:07;2.22;;;0.98;;
11490;SDS011;5802;52.832;4.758;2022-10-31T02:17:36;4.00;;;0.98;;
11490;SDS011;5802;52.832;4.758;2022-10-31T02:20:05;2.10;;;0.77;;
11490;SDS011;5802;52.832;4.758;2022-10-31T02:22:43;2.15;;;1.00;;
11490;SDS011;5802;52.832;4.758;2022-10-31T02:25:37;2.17;;;0.93;;
11490;SDS011;5802;52.832;4.758;2022-10-31T02:28:23;2.00;;;1.02;;
11490;SDS011;5802;52.832;4.758;2022-10-31T02:31:08;2.05;;;1.05;;
11490;SDS011;5802;52.832;4.758;2022-10-31T02:33:48;1.30;;;1.00;;
11490;SDS011;5802;52.832;4.758;2022-10-31T02:36:20;2.78;;;0.80;;
11490;SDS011;5802;52.832;4.758;2022-10-31T02:38:52;1.92;;;1.00;;
11490;SDS011;5802;52.832;4.758;2022-10-31T02:41:31;1.90;;;0.95;;
11490;SDS011;5802;52.832;4.758;2022-10-31T02:44:05;1.17;;;0.50;;
11490;SDS011;5802;52.832;4.758;2022-10-31T02:46:47;1.40;;;0.95;;
11490;SDS011;5802;52.832;4.758;2022-10-31T02:49:18;1.50;;;0.93;;
11490;SDS011;5802;52.832;4.758;2022-10-31T02:51:50;1.95;;;1.00;;
11490;SDS011;5802;52.832;4.758;2022-10-31T02:54:21;1.42;;;0.70;;
11490;SDS011;5802;52.832;4.758;2022-10-31T02:56:50;1.65;;;1.00;;
11490;SDS011;5802;52.832;4.758;2022-10-31T02:59:19;1.63;;;0.85;;
11490;SDS011;5802;52.832;4.758;2022-10-31T03:01:58;1.65;;;1.00;;
11490;SDS011;5802;52.832;4.758;2022-10-31T03:04:49;2.70;;;0.70;;
11490;SDS011;5802;52.832;4.758;2022-10-31T03:07:32;1.20;;;0.70;;
11490;SDS011;5802;52.832;4.758;2022-10-31T03:10:08;1.42;;;0.95;;
11490;SDS011;5802;52.832;4.758;2022-10-31T03:12:46;1.98;;;1.00;;
11490;SDS011;5802;52.832;4.758;2022-10-31T03:15:21;1.15;;;0.70;;
11490;SDS011;5802;52.832;4.758;2022-10-31T03:17:54;0.93;;;0.75;;
11490;SDS011;5802;52.832;4.758;2022-10-31T03:20:26;1.50;;;0.70;;
11490;SDS011;5802;52.832;4.758;2022-10-31T03:22:57;1.50;;;0.90;;
11490;SDS011;5802;52.832;4.758;2022-10-31T03:25:26;1.67;;;0.70;;
11490;SDS011;5802;52.832;4.758;2022-10-31T03:27:54;1.27;;;0.82;;
11490;SDS011;5802;52.832;4.758;2022-10-31T03:30:22;0.88;;;0.70;;
11490;SDS011;5802;52.832;4.758;2022-10-31T03:32:54;1.17;;;0.70;;
11490;SDS011;5802;52.832;4.758;2022-10-31T03:35:23;2.42;;;0.88;;
11490;SDS011;5802;52.832;4.758;2022-10-31T03:37:55;1.98;;;0.80;;
11490;SDS011;5802;52.832;4.758;2022-10-31T03:40:25;1.27;;;0.75;;
11490;SDS011;5802;52.832;4.758;2022-10-31T03:42:54;2.13;;;0.80;;
11490;SDS011;5802;52.832;4.758;2022-10-31T03:45:24;1.20;;;1.00;;
11490;SDS011;5802;52.832;4.758;2022-10-31T03:47:54;0.75;;;0.63;;
11490;SDS011;5802;52.832;4.758;2022-10-31T03:50:23;1.10;;;0.80;;
11490;SDS011;5802;52.832;4.758;2022-10-31T03:52:55;1.10;;;0.80;;
11490;SDS011;5802;52.832;4.758;2022-10-31T03:55:28;1.10;;;0.85;;
11490;SDS011;5802;52.832;4.758;2022-10-31T03:57:57;1.10;;;0.90;;
11490;SDS011;5802;52.832;4.758;2022-10-31T04:00:28;1.15;;;0.80;;
11490;SDS011;5802;52.832;4.758;2022-10-31T04:02:59;1.10;;;0.82;;
11490;SDS011;5802;52.832;4.758;2022-10-31T04:05:32;1.48;;;0.80;;
11490;SDS011;5802;52.832;4.758;2022-10-31T04:08:01;1.42;;;0.80;;
11490;SDS011;5802;52.832;4.758;2022-10-31T04:10:30;1.85;;;0.90;;
11490;SDS011;5802;52.832;4.758;2022-10-31T04:13:01;3.88;;;1.02;;
11490;SDS011;5802;52.832;4.758;2022-10-31T04:15:30;1.60;;;1.10;;
11490;SDS011;5802;52.832;4.758;2022-10-31T04:17:59;1.05;;;0.75;;
11490;SDS011;5802;52.832;4.758;2022-10-31T04:20:30;1.25;;;0.80;;
11490;SDS011;5802;52.832;4.758;2022-10-31T04:22:58;1.10;;;0.60;;
11490;SDS011;5802;52.832;4.758;2022-10-31T04:25:27;2.15;;;0.88;;
11490;SDS011;5802;52.832;4.758;2022-10-31T04:27:53;1.80;;;1.00;;
11490;SDS011;5802;52.832;4.758;2022-10-31T04:30:20;2.13;;;1.00;;
11490;SDS011;5802;52.832;4.758;2022-10-31T04:32:47;1.33;;;0.70;;
11490;SDS011;5802;52.832;4.758;2022-10-31T04:35:15;0.60;;;0.60;;
11490;SDS011;5802;52.832;4.758;2022-10-31T04:37:42;1.60;;;0.82;;
11490;SDS011;5802;52.832;4.758;2022-10-31T04:40:09;1.10;;;0.68;;
11490;SDS011;5802;52.832;4.758;2022-10-31T04:42:37;2.72;;;0.90;;
11490;SDS011;5802;52.832;4.758;2022-10-31T04:45:08;1.85;;;0.80;;
11490;SDS011;5802;52.832;4.758;2022-10-31T04:47:35;1.42;;;0.90;;
11490;SDS011;5802;52.832;4.758;2022-10-31T04:50:01;0.88;;;0.70;;
11490;SDS011;5802;52.832;4.758;2022-10-31T04:52:30;1.10;;;0.75;;
11490;SDS011;5802;52.832;4.758;2022-10-31T04:54:56;2.15;;;1.08;;
11490;SDS011;5802;52.832;4.758;2022-10-31T04:57:23;1.27;;;0.80;;
11490;SDS011;5802;52.832;4.758;2022-10-31T04:59:50;0.95;;;0.68;;
11490;SDS011;5802;52.832;4.758;2022-10-31T05:02:19;1.20;;;0.90;;
11490;SDS011;5802;52.832;4.758;2022-10-31T05:04:46;0.68;;;0.60;;
11490;SDS011;5802;52.832;4.758;2022-10-31T05:07:13;1.52;;;0.77;;
11490;SDS011;5802;52.832;4.758;2022-10-31T05:09:41;1.23;;;0.70;;
11490;SDS011;5802;52.832;4.758;2022-10-31T05:12:07;1.17;;;0.90;;
11490;SDS011;5802;52.832;4.758;2022-10-31T05:14:34;1.85;;;0.98;;
11490;SDS011;5802;52.832;4.758;2022-10-31T05:17:00;0.80;;;0.50;;
11490;SDS011;5802;52.832;4.758;2022-10-31T05:19:27;1.27;;;0.73;;
11490;SDS011;5802;52.832;4.758;2022-10-31T05:21:54;1.05;;;0.80;;
11490;SDS011;5802;52.832;4.758;2022-10-31T05:24:20;2.47;;;0.63;;
11490;SDS011;5802;52.832;4.758;2022-10-31T05:26:49;1.38;;;0.68;;
11490;SDS011;5802;52.832;4.758;2022-10-31T05:29:15;1.63;;;0.90;;
11490;SDS011;5802;52.832;4.758;2022-10-31T05:31:42;1.20;;;0.90;;
11490;SDS011;5802;52.832;4.758;2022-10-31T05:34:09;1.13;;;0.80;;
11490;SDS011;5802;52.832;4.758;2022-10-31T05:36:35;1.38;;;0.98;;
11490;SDS011;5802;52.832;4.758;2022-10-31T05:39:02;0.80;;;0.70;;
11490;SDS011;5802;52.832;4.758;2022-10-31T05:41:29;1.02;;;0.60;;
11490;SDS011;5802;52.832;4.758;2022-10-31T05:43:57;0.70;;;0.60;;
11490;SDS011;5802;52.832;4.758;2022-10-31T05:46:23;1.00;;;0.77;;
11490;SDS011;5802;52.832;4.758;2022-10-31T05:48:50;1.05;;;0.70;;
11490;SDS011;5802;52.832;4.758;2022-10-31T05:51:17;1.67;;;0.90;;
11490;SDS011;5802;52.832;4.758;2022-10-31T05:53:43;1.17;;;0.93;;
11490;SDS011;5802;52.832;4.758;2022-10-31T05:56:12;0.73;;;0.68;;
11490;SDS011;5802;52.832;4.758;2022-10-31T05:58:39;1.08;;;0.65;;
11490;SDS011;5802;52.832;4.758;2022-10-31T06:01:07;0.88;;;0.63;;
11490;SDS011;5802;52.832;4.758;2022-10-31T06:03:33;1.42;;;1.00;;
11490;SDS011;5802;52.832;4.758;2022-10-31T06:06:00;1.35;;;0.93;;
11490;SDS011;5802;52.832;4.758;2022-10-31T06:08:27;1.33;;;0.73;;
11490;SDS011;5802;52.832;4.758;2022-10-31T06:10:53;1.63;;;0.80;;
11490;SDS011;5802;52.832;4.758;2022-10-31T06:13:20;1.15;;;0.77;;
11490;SDS011;5802;52.832;4.758;2022-10-31T06:15:47;2.10;;;0.93;;
11490;SDS011;5802;52.832;4.758;2022-10-31T06:18:15;1.38;;;0.90;;
11490;SDS011;5802;52.832;4.758;2022-10-31T06:20:42;1.10;;;0.80;;
11490;SDS011;5802;52.832;4.758;2022-10-31T06:23:08;0.60;;;0.60;;
11490;SDS011;5802;52.832;4.758;2022-10-31T06:25:35;1.20;;;0.90;;
11490;SDS011;5802;52.832;4.758;2022-10-31T06:28:02;1.63;;;0.80;;
11490;SDS011;5802;52.832;4.758;2022-10-31T06:30:29;1.23;;;0.82;;
11490;SDS011;5802;52.832;4.758;2022-10-31T06:33:01;1.92;;;1.02;;
11490;SDS011;5802;52.832;4.758;2022-10-31T06:35:29;0.90;;;0.70;;
11490;SDS011;5802;52.832;4.758;2022-10-31T06:37:56;1.63;;;0.90;;
11490;SDS011;5802;52.832;4.758;2022-10-31T06:40:23;0.98;;;0.80;;
11490;SDS011;5802;52.832;4.758;2022-10-31T06:42:55;3.22;;;1.10;;
11490;SDS011;5802;52.832;4.758;2022-10-31T06:45:23;1.80;;;1.00;;
11490;SDS011;5802;52.832;4.758;2022-10-31T06:47:50;1.00;;;0.90;;
11490;SDS011;5802;52.832;4.758;2022-10-31T06:50:17;1.30;;;0.80;;
11490;SDS011;5802;52.832;4.758;2022-10-31T06:52:50;5.80;;;0.85;;
11490;SDS011;5802;52.832;4.758;2022-10-31T06:55:17;1.27;;;0.93;;
11490;SDS011;5802;52.832;4.758;2022-10-31T06:57:49;2.00;;;1.10;;
11490;SDS011;5802;52.832;4.758;2022-10-31T07:00:16;2.05;;;0.90;;
11490;SDS011;5802;52.832;4.758;2022-10-31T07:02:43;2.40;;;0.90;;
11490;SDS011;5802;52.832;4.758;2022-10-31T07:05:09;1.27;;;0.90;;
11490;SDS011;5802;52.832;4.758;2022-10-31T07:07:36;3.38;;;1.10;;
11490;SDS011;5802;52.832;4.758;2022-10-31T07:10:04;2.15;;;0.98;;
11490;SDS011;5802;52.832;4.758;2022-10-31T07:12:31;2.05;;;0.90;;
11490;SDS011;5802;52.832;4.758;2022-10-31T07:14:58;1.38;;;1.00;;
11490;SDS011;5802;52.832;4.758;2022-10-31T07:17:25;2.28;;;0.95;;
11490;SDS011;5802;52.832;4.758;2022-10-31T07:19:51;1.20;;;0.90;;
11490;SDS011;5802;52.832;4.758;2022-10-31T07:22:18;1.85;;;0.90;;
11490;SDS011;5802;52.832;4.758;2022-10-31T07:24:44;0.68;;;0.68;;
11490;SDS011;5802;52.832;4.758;2022-10-31T07:27:12;2.95;;;1.63;;
11490;SDS011;5802;52.832;4.758;2022-10-31T07:29:39;0.77;;;0.60;;
11490;SDS011;5802;52.832;4.758;2022-10-31T07:32:07;1.25;;;0.85;;
11490;SDS011;5802;52.832;4.758;2022-10-31T07:34:33;1.90;;;1.08;;
11490;SDS011;5802;52.832;4.758;2022-10-31T07:37:00;0.77;;;0.63;;
11490;SDS011;5802;52.832;4.758;2022-10-31T07:39:27;2.67;;;0.93;;
11490;SDS011;5802;52.832;4.758;2022-10-31T07:41:53;1.02;;;0.75;;
11490;SDS011;5802;52.832;4.758;2022-10-31T07:44:21;1.50;;;0.98;;
11490;SDS011;5802;52.832;4.758;2022-10-31T07:46:48;1.00;;;0.88;;
11490;SDS011;5802;52.832;4.758;2022-10-31T07:49:15;1.45;;;0.77;;
11490;SDS011;5802;52.832;4.758;2022-10-31T07:51:41;0.90;;;0.80;;
11490;SDS011;5802;52.832;4.758;2022-10-31T07:54:08;1.17;;;0.88;;
11490;SDS011;5802;52.832;4.758;2022-10-31T07:56:35;1.00;;;0.70;;
11490;SDS011;5802;52.832;4.758;2022-10-31T07:59:01;1.45;;;1.00;;
11490;SDS011;5802;52.832;4.758;2022-10-31T08:01:32;1.05;;;0.80;;
11490;SDS011;5802;52.832;4.758;2022-10-31T08:03:59;1.38;;;1.00;;
11490;SDS011;5802;52.832;4.758;2022-10-31T08:06:25;1.65;;;0.98;;
11490;SDS011;5802;52.832;4.758;2022-10-31T08:08:52;4.28;;;0.90;;
11490;SDS011;5802;52.832;4.758;2022-10-31T08:11:19;1.00;;;0.73;;
11490;SDS011;5802;52.832;4.758;2022-10-31T08:13:46;2.53;;;0.95;;
11490;SDS011;5802;52.832;4.758;2022-10-31T08:16:12;1.67;;;1.00;;
11490;SDS011;5802;52.832;4.758;2022-10-31T08:18:40;1.00;;;0.88;;
11490;SDS011;5802;52.832;4.758;2022-10-31T08:21:10;1.60;;;1.00;;
11490;SDS011;5802;52.832;4.758;2022-10-31T08:23:37;1.35;;;0.90;;
11490;SDS011;5802;52.832;4.758;2022-10-31T08:26:04;3.45;;;0.70;;
11490;SDS011;5802;52.832;4.758;2022-10-31T08:28:31;1.55;;;1.00;;
11490;SDS011;5802;52.832;4.758;2022-10-31T08:30:58;1.42;;;0.90;;
11490;SDS011;5802;52.832;4.758;2022-10-31T08:33:25;1.30;;;1.00;;
11490;SDS011;5802;52.832;4.758;2022-10-31T08:35:53;1.60;;;1.10;;
11490;SDS011;5802;52.832;4.758;2022-10-31T08:38:19;3.17;;;1.05;;
11490;SDS011;5802;52.832;4.758;2022-10-31T08:40:47;1.40;;;1.00;;
11490;SDS011;5802;52.832;4.758;2022-10-31T08:43:15;3.58;;;0.98;;
11490;SDS011;5802;52.832;4.758;2022-10-31T08:45:44;1.73;;;0.90;;
11490;SDS011;5802;52.832;4.758;2022-10-31T08:48:14;1.85;;;1.00;;
11490;SDS011;5802;52.832;4.758;2022-10-31T08:50:42;1.55;;;1.08;;
11490;SDS011;5802;52.832;4.758;2022-10-31T08:53:12;4.90;;;1.15;;
11490;SDS011;5802;52.832;4.758;2022-10-31T08:55:43;1.23;;;0.90;;
11490;SDS011;5802;52.832;4.758;2022-10-31T08:58:12;1.88;;;0.73;;
11490;SDS011;5802;52.832;4.758;2022-10-31T09:00:40;1.50;;;1.00;;
11490;SDS011;5802;52.832;4.758;2022-10-31T09:03:08;1.55;;;1.00;;
11490;SDS011;5802;52.832;4.758;2022-10-31T09:05:37;1.23;;;0.90;;
11490;SDS011;5802;52.832;4.758;2022-10-31T09:08:05;1.13;;;0.77;;
11490;SDS011;5802;52.832;4.758;2022-10-31T09:10:34;1.00;;;0.88;;
11490;SDS011;5802;52.832;4.758;2022-10-31T09:13:03;2.10;;;1.00;;
11490;SDS011;5802;52.832;4.758;2022-10-31T09:15:32;1.48;;;0.90;;
11490;SDS011;5802;52.832;4.758;2022-10-31T09:17:59;1.38;;;1.08;;
11490;SDS011;5802;52.832;4.758;2022-10-31T09:20:26;1.08;;;0.95;;
11490;SDS011;5802;52.832;4.758;2022-10-31T09:22:56;1.25;;;0.80;;
11490;SDS011;5802;52.832;4.758;2022-10-31T09:25:24;1.52;;;0.80;;
11490;SDS011;5802;52.832;4.758;2022-10-31T09:27:54;1.45;;;0.90;;
11490;SDS011;5802;52.832;4.758;2022-10-31T09:30:22;1.10;;;0.90;;
11490;SDS011;5802;52.832;4.758;2022-10-31T09:32:54;1.15;;;0.90;;
11490;SDS011;5802;52.832;4.758;2022-10-31T09:35:21;1.27;;;0.88;;
11490;SDS011;5802;52.832;4.758;2022-10-31T09:37:53;2.35;;;0.93;;
11490;SDS011;5802;52.832;4.758;2022-10-31T09:40:20;1.20;;;0.85;;
11490;SDS011;5802;52.832;4.758;2022-10-31T09:42:49;1.60;;;0.90;;
11490;SDS011;5802;52.832;4.758;2022-10-31T09:45:26;2.85;;;1.63;;
11490;SDS011;5802;52.832;4.758;2022-10-31T09:48:05;3.72;;;2.78;;
11490;SDS011;5802;52.832;4.758;2022-10-31T09:50:41;5.93;;;4.28;;
11490;SDS011;5802;52.832;4.758;2022-10-31T09:53:15;8.43;;;5.25;;
11490;SDS011;5802;52.832;4.758;2022-10-31T09:55:48;7.47;;;5.53;;
11490;SDS011;5802;52.832;4.758;2022-10-31T09:58:18;6.72;;;4.40;;
11490;SDS011;5802;52.832;4.758;2022-10-31T10:00:48;8.73;;;4.55;;
11490;SDS011;5802;52.832;4.758;2022-10-31T10:03:19;7.78;;;4.15;;
11490;SDS011;5802;52.832;4.758;2022-10-31T10:05:54;8.20;;;4.68;;
11490;SDS011;5802;52.832;4.758;2022-10-31T10:08:29;6.22;;;3.95;;
11490;SDS011;5802;52.832;4.758;2022-10-31T10:11:01;4.53;;;3.67;;
11490;SDS011;5802;52.832;4.758;2022-10-31T10:13:47;5.93;;;4.30;;
11490;SDS011;5802;52.832;4.758;2022-10-31T10:16:27;7.78;;;3.60;;
11490;SDS011;5802;52.832;4.758;2022-10-31T10:19:13;7.93;;;3.65;;
11490;SDS011;5802;52.832;4.758;2022-10-31T10:21:54;7.03;;;4.05;;
11490;SDS011;5802;52.832;4.758;2022-10-31T10:24:29;6.07;;;4.00;;
11490;SDS011;5802;52.832;4.758;2022-10-31T10:27:10;4.65;;;3.40;;
11490;SDS011;5802;52.832;4.758;2022-10-31T10:29:47;6.90;;;4.03;;
11490;SDS011;5802;52.832;4.758;2022-10-31T10:32:20;5.90;;;3.83;;
11490;SDS011;5802;52.832;4.758;2022-10-31T10:34:50;6.25;;;4.00;;
11490;SDS011;5802;52.832;4.758;2022-10-31T10:37:24;5.68;;;3.65;;
11490;SDS011;5802;52.832;4.758;2022-10-31T10:39:54;10.80;;;4.10;;
11490;SDS011;5802;52.832;4.758;2022-10-31T10:42:24;5.90;;;4.10;;
11490;SDS011;5802;52.832;4.758;2022-10-31T10:45:15;9.20;;;4.05;;
11490;SDS011;5802;52.832;4.758;2022-10-31T10:48:08;8.45;;;4.38;;
11490;SDS011;5802;52.832;4.758;2022-10-31T10:50:41;5.00;;;3.67;;
11490;SDS011;5802;52.832;4.758;2022-10-31T10:53:18;7.05;;;3.90;;
11490;SDS011;5802;52.832;4.758;2022-10-31T10:56:02;12.80;;;4.32;;
11490;SDS011;5802;52.832;4.758;2022-10-31T10:58:37;6.13;;;4.22;;
11490;SDS011;5802;52.832;4.758;2022-10-31T11:01:10;6.40;;;4.15;;
11490;SDS011;5802;52.832;4.758;2022-10-31T11:03:38;6.50;;;4.30;;
11490;SDS011;5802;52.832;4.758;2022-10-31T11:06:15;7.05;;;4.32;;
11490;SDS011;5802;52.832;4.758;2022-10-31T11:08:47;9.13;;;4.32;;
11490;SDS011;5802;52.832;4.758;2022-10-31T11:11:17;6.50;;;4.00;;
11490;SDS011;5802;52.832;4.758;2022-10-31T11:13:57;9.32;;;4.68;;
11490;SDS011;5802;52.832;4.758;2022-10-31T11:16:30;7.30;;;4.10;;
11490;SDS011;5802;52.832;4.758;2022-10-31T11:19:06;6.47;;;4.13;;
11490;SDS011;5802;52.832;4.758;2022-10-31T11:21:35;6.35;;;4.13;;
11490;SDS011;5802;52.832;4.758;2022-10-31T11:24:02;6.50;;;3.58;;
11490;SDS011;5802;52.832;4.758;2022-10-31T11:26:30;5.97;;;3.80;;
11490;SDS011;5802;52.832;4.758;2022-10-31T11:29:00;6.30;;;3.60;;
11490;SDS011;5802;52.832;4.758;2022-10-31T11:31:29;6.38;;;3.70;;
11490;SDS011;5802;52.832;4.758;2022-10-31T11:34:00;9.70;;;3.72;;
11490;SDS011;5802;52.832;4.758;2022-10-31T11:36:31;8.10;;;3.63;;
11490;SDS011;5802;52.832;4.758;2022-10-31T11:39:00;4.75;;;3.30;;
11490;SDS011;5802;52.832;4.758;2022-10-31T11:41:29;6.03;;;3.88;;
11490;SDS011;5802;52.832;4.758;2022-10-31T11:43:59;7.07;;;3.67;;
11490;SDS011;5802;52.832;4.758;2022-10-31T11:46:30;4.47;;;3.38;;
11490;SDS011;5802;52.832;4.758;2022-10-31T11:49:01;6.43;;;3.88;;
11490;SDS011;5802;52.832;4.758;2022-10-31T11:51:29;6.18;;;3.50;;
11490;SDS011;5802;52.832;4.758;2022-10-31T11:53:58;8.30;;;3.30;;
11490;SDS011;5802;52.832;4.758;2022-10-31T11:56:38;4.60;;;3.40;;
11490;SDS011;5802;52.832;4.758;2022-10-31T11:59:15;4.13;;;2.90;;
11490;SDS011;5802;52.832;4.758;2022-10-31T12:01:53;6.45;;;3.78;;
11490;SDS011;5802;52.832;4.758;2022-10-31T12:04:27;5.75;;;3.60;;
11490;SDS011;5802;52.832;4.758;2022-10-31T12:07:03;6.38;;;3.97;;
11490;SDS011;5802;52.832;4.758;2022-10-31T12:09:32;6.30;;;3.78;;
11490;SDS011;5802;52.832;4.758;2022-10-31T12:12:03;7.60;;;3.95;;
11490;SDS011;5802;52.832;4.758;2022-10-31T12:14:41;5.45;;;3.88;;
11490;SDS011;5802;52.832;4.758;2022-10-31T12:17:18;5.97;;;4.00;;
11490;SDS011;5802;52.832;4.758;2022-10-31T12:19:51;4.93;;;3.70;;
11490;SDS011;5802;52.832;4.758;2022-10-31T12:22:26;4.85;;;3.10;;
11490;SDS011;5802;52.832;4.758;2022-10-31T12:25:19;4.65;;;2.90;;
11490;SDS011;5802;52.832;4.758;2022-10-31T12:27:57;4.97;;;2.63;;
11490;SDS011;5802;52.832;4.758;2022-10-31T12:30:32;5.03;;;2.53;;
11490;SDS011;5802;52.832;4.758;2022-10-31T12:36:12;3.78;;;2.20;;
11490;SDS011;5802;52.832;4.758;2022-10-31T12:41:45;4.05;;;2.25;;
11490;SDS011;5802;52.832;4.758;2022-10-31T12:44:34;8.20;;;2.42;;
11490;SDS011;5802;52.832;4.758;2022-10-31T12:50:13;5.63;;;2.03;;
11490;SDS011;5802;52.832;4.758;2022-10-31T12:52:50;4.28;;;2.10;;
11490;SDS011;5802;52.832;4.758;2022-10-31T12:55:30;3.30;;;2.15;;
11490;SDS011;5802;52.832;4.758;2022-10-31T12:58:06;3.28;;;2.10;;
11490;SDS011;5802;52.832;4.758;2022-10-31T13:00:35;2.63;;;1.85;;
11490;SDS011;5802;52.832;4.758;2022-10-31T13:03:09;3.25;;;1.80;;
11490;SDS011;5802;52.832;4.758;2022-10-31T13:05:53;5.10;;;2.13;;
11490;SDS011;5802;52.832;4.758;2022-10-31T13:08:25;2.40;;;1.80;;
11490;SDS011;5802;52.832;4.758;2022-10-31T13:10:56;4.80;;;1.90;;
11490;SDS011;5802;52.832;4.758;2022-10-31T13:13:31;2.17;;;1.85;;
11490;SDS011;5802;52.832;4.758;2022-10-31T13:16:03;2.63;;;1.85;;
11490;SDS011;5802;52.832;4.758;2022-10-31T13:18:37;2.80;;;1.80;;
11490;SDS011;5802;52.832;4.758;2022-10-31T13:21:09;3.17;;;1.67;;
11490;SDS011;5802;52.832;4.758;2022-10-31T13:23:41;4.90;;;1.70;;
11490;SDS011;5802;52.832;4.758;2022-10-31T13:26:12;3.38;;;1.70;;
11490;SDS011;5802;52.832;4.758;2022-10-31T13:28:43;4.03;;;2.08;;
11490;SDS011;5802;52.832;4.758;2022-10-31T13:31:13;2.58;;;1.80;;
11490;SDS011;5802;52.832;4.758;2022-10-31T13:33:40;2.80;;;1.67;;
11490;SDS011;5802;52.832;4.758;2022-10-31T13:36:15;3.60;;;1.90;;
11490;SDS011;5802;52.832;4.758;2022-10-31T13:38:48;3.67;;;2.00;;
11490;SDS011;5802;52.832;4.758;2022-10-31T13:41:21;4.38;;;1.75;;
11490;SDS011;5802;52.832;4.758;2022-10-31T13:44:01;5.03;;;1.90;;
11490;SDS011;5802;52.832;4.758;2022-10-31T13:46:36;3.95;;;1.95;;
11490;SDS011;5802;52.832;4.758;2022-10-31T13:49:04;1.95;;;1.70;;
11490;SDS011;5802;52.832;4.758;2022-10-31T13:51:48;3.95;;;1.85;;
11490;SDS011;5802;52.832;4.758;2022-10-31T13:54:20;4.35;;;2.00;;
11490;SDS011;5802;52.832;4.758;2022-10-31T13:56:48;3.08;;;2.13;;
11490;SDS011;5802;52.832;4.758;2022-10-31T13:59:17;6.00;;;2.08;;
11490;SDS011;5802;52.832;4.758;2022-10-31T14:01:53;4.15;;;1.88;;
11490;SDS011;5802;52.832;4.758;2022-10-31T14:04:22;5.32;;;2.08;;
11490;SDS011;5802;52.832;4.758;2022-10-31T14:06:56;5.32;;;2.10;;
11490;SDS011;5802;52.832;4.758;2022-10-31T14:09:31;3.80;;;1.70;;
11490;SDS011;5802;52.832;4.758;2022-10-31T14:12:03;3.75;;;1.85;;
11490;SDS011;5802;52.832;4.758;2022-10-31T14:14:40;3.15;;;1.90;;
11490;SDS011;5802;52.832;4.758;2022-10-31T14:17:17;4.55;;;1.88;;
11490;SDS011;5802;52.832;4.758;2022-10-31T14:19:56;2.85;;;1.80;;
11490;SDS011;5802;52.832;4.758;2022-10-31T14:22:29;4.32;;;1.88;;
11490;SDS011;5802;52.832;4.758;2022-10-31T14:24:57;2.28;;;1.50;;
11490;SDS011;5802;52.832;4.758;2022-10-31T14:27:32;2.45;;;1.50;;
11490;SDS011;5802;52.832;4.758;2022-10-31T14:30:14;2.00;;;1.50;;
11490;SDS011;5802;52.832;4.758;2022-10-31T14:32:43;2.13;;;1.40;;
11490;SDS011;5802;52.832;4.758;2022-10-31T14:35:13;1.98;;;1.65;;
11490;SDS011;5802;52.832;4.758;2022-10-31T14:37:52;2.70;;;1.70;;
11490;SDS011;5802;52.832;4.758;2022-10-31T14:40:32;3.22;;;1.55;;
11490;SDS011;5802;52.832;4.758;2022-10-31T14:43:09;4.07;;;1.88;;
11490;SDS011;5802;52.832;4.758;2022-10-31T14:45:55;2.72;;;1.60;;
11490;SDS011;5802;52.832;4.758;2022-10-31T14:48:38;6.85;;;1.60;;
11490;SDS011;5802;52.832;4.758;2022-10-31T14:51:25;4.32;;;1.50;;
11490;SDS011;5802;52.832;4.758;2022-10-31T14:53:57;2.72;;;1.42;;
11490;SDS011;5802;52.832;4.758;2022-10-31T14:56:26;3.50;;;1.75;;
11490;SDS011;5802;52.832;4.758;2022-10-31T14:58:55;6.07;;;1.75;;
11490;SDS011;5802;52.832;4.758;2022-10-31T15:01:26;2.72;;;1.60;;
11490;SDS011;5802;52.832;4.758;2022-10-31T15:03:55;2.88;;;1.55;;
11490;SDS011;5802;52.832;4.758;2022-10-31T15:06:26;3.78;;;1.75;;
11490;SDS011;5802;52.832;4.758;2022-10-31T15:09:04;3.00;;;1.80;;
11490;SDS011;5802;52.832;4.758;2022-10-31T15:11:35;4.13;;;1.70;;
11490;SDS011;5802;52.832;4.758;2022-10-31T15:14:17;2.88;;;1.80;;
11490;SDS011;5802;52.832;4.758;2022-10-31T15:16:48;3.75;;;1.55;;
11490;SDS011;5802;52.832;4.758;2022-10-31T15:19:16;3.80;;;1.60;;
11490;SDS011;5802;52.832;4.758;2022-10-31T15:21:50;3.53;;;1.52;;
11490;SDS011;5802;52.832;4.758;2022-10-31T15:24:19;2.63;;;1.77;;
11490;SDS011;5802;52.832;4.758;2022-10-31T15:26:49;2.17;;;1.80;;
11490;SDS011;5802;52.832;4.758;2022-10-31T15:29:18;2.60;;;1.67;;
11490;SDS011;5802;52.832;4.758;2022-10-31T15:31:51;3.00;;;1.50;;